sensor_id;sensor_type;location;lat;lon;timestamp;P1;durP1;ratioP1;P2;durP2;ratioP2
64875;SDS011;51369;49.862;9.908;2023-06-14T00:00:04;6.60;;;5.35;;
64875;SDS011;51369;49.862;9.908;2023-06-14T00:02:30;10.50;;;5.25;;
64875;SDS011;51369;49.862;9.908;2023-06-14T00:04:56;7.43;;;5.30;;
64875;SDS011;51369;49.862;9.908;2023-06-14T00:07:22;9.30;;;4.82;;
64875;SDS011;51369;49.862;9.908;2023-06-14T00:09:59;6.15;;;5.55;;
64875;SDS011;51369;49.862;9.908;2023-06-14T00:12:25;8.30;;;5.57;;
64875;SDS011;51369;49.862;9.908;2023-06-14T00:14:50;8.40;;;5.22;;
64875;SDS011;51369;49.862;9.908;2023-06-14T00:17:16;6.32;;;4.97;;
64875;SDS011;51369;49.862;9.908;2023-06-14T00:19:41;11.10;;;5.28;;
64875;SDS011;51369;49.862;9.908;2023-06-14T00:22:07;7.53;;;5.07;;
64875;SDS011;51369;49.862;9.908;2023-06-14T00:24:32;6.07;;;4.85;;
64875;SDS011;51369;49.862;9.908;2023-06-14T00:26:58;7.90;;;5.72;;
64875;SDS011;51369;49.862;9.908;2023-06-14T00:29:23;6.70;;;4.97;;
64875;SDS011;51369;49.862;9.908;2023-06-14T00:31:49;7.47;;;5.47;;
64875;SDS011;51369;49.862;9.908;2023-06-14T00:34:14;8.27;;;5.22;;
64875;SDS011;51369;49.862;9.908;2023-06-14T00:36:40;8.98;;;5.32;;
64875;SDS011;51369;49.862;9.908;2023-06-14T00:39:05;6.57;;;5.10;;
64875;SDS011;51369;49.862;9.908;2023-06-14T00:41:30;10.55;;;5.35;;
64875;SDS011;51369;49.862;9.908;2023-06-14T00:43:57;8.40;;;6.15;;
64875;SDS011;51369;49.862;9.908;2023-06-14T00:46:23;7.03;;;5.38;;
64875;SDS011;51369;49.862;9.908;2023-06-14T00:48:48;8.98;;;4.93;;
64875;SDS011;51369;49.862;9.908;2023-06-14T00:51:15;9.80;;;5.30;;
64875;SDS011;51369;49.862;9.908;2023-06-14T00:53:40;13.90;;;5.32;;
64875;SDS011;51369;49.862;9.908;2023-06-14T00:56:11;6.13;;;5.15;;
64875;SDS011;51369;49.862;9.908;2023-06-14T00:58:39;10.60;;;5.45;;
64875;SDS011;51369;49.862;9.908;2023-06-14T01:01:04;9.60;;;5.63;;
64875;SDS011;51369;49.862;9.908;2023-06-14T01:03:31;11.27;;;5.45;;
64875;SDS011;51369;49.862;9.908;2023-06-14T01:06:13;6.22;;;5.10;;
64875;SDS011;51369;49.862;9.908;2023-06-14T01:08:56;8.68;;;5.47;;
64875;SDS011;51369;49.862;9.908;2023-06-14T01:11:33;6.00;;;4.78;;
64875;SDS011;51369;49.862;9.908;2023-06-14T01:14:11;8.68;;;5.47;;
64875;SDS011;51369;49.862;9.908;2023-06-14T01:16:38;10.05;;;4.82;;
64875;SDS011;51369;49.862;9.908;2023-06-14T01:19:05;6.97;;;5.13;;
64875;SDS011;51369;49.862;9.908;2023-06-14T01:21:34;7.90;;;5.07;;
64875;SDS011;51369;49.862;9.908;2023-06-14T01:24:07;6.75;;;4.97;;
64875;SDS011;51369;49.862;9.908;2023-06-14T01:26:35;10.55;;;5.28;;
64875;SDS011;51369;49.862;9.908;2023-06-14T01:29:02;8.90;;;5.10;;
64875;SDS011;51369;49.862;9.908;2023-06-14T01:31:28;8.43;;;4.90;;
64875;SDS011;51369;49.862;9.908;2023-06-14T01:34:05;6.45;;;5.47;;
64875;SDS011;51369;49.862;9.908;2023-06-14T01:36:30;11.23;;;5.28;;
64875;SDS011;51369;49.862;9.908;2023-06-14T01:38:56;7.15;;;5.22;;
64875;SDS011;51369;49.862;9.908;2023-06-14T01:41:26;8.63;;;5.85;;
64875;SDS011;51369;49.862;9.908;2023-06-14T01:43:52;9.55;;;5.15;;
64875;SDS011;51369;49.862;9.908;2023-06-14T01:46:19;7.57;;;5.22;;
64875;SDS011;51369;49.862;9.908;2023-06-14T01:48:45;7.03;;;4.55;;
64875;SDS011;51369;49.862;9.908;2023-06-14T01:51:10;6.75;;;4.70;;
64875;SDS011;51369;49.862;9.908;2023-06-14T01:53:36;9.23;;;5.40;;
64875;SDS011;51369;49.862;9.908;2023-06-14T01:56:01;6.43;;;5.35;;
64875;SDS011;51369;49.862;9.908;2023-06-14T01:58:29;7.70;;;5.30;;
64875;SDS011;51369;49.862;9.908;2023-06-14T02:00:56;9.32;;;5.90;;
64875;SDS011;51369;49.862;9.908;2023-06-14T02:03:23;7.50;;;5.70;;
64875;SDS011;51369;49.862;9.908;2023-06-14T02:05:49;10.45;;;6.18;;
64875;SDS011;51369;49.862;9.908;2023-06-14T02:08:16;8.77;;;5.65;;
64875;SDS011;51369;49.862;9.908;2023-06-14T02:10:41;8.50;;;5.57;;
64875;SDS011;51369;49.862;9.908;2023-06-14T02:13:07;11.52;;;5.57;;
64875;SDS011;51369;49.862;9.908;2023-06-14T02:15:32;8.85;;;5.30;;
64875;SDS011;51369;49.862;9.908;2023-06-14T02:18:01;9.20;;;5.45;;
64875;SDS011;51369;49.862;9.908;2023-06-14T02:20:28;6.97;;;5.40;;
64875;SDS011;51369;49.862;9.908;2023-06-14T02:22:53;8.25;;;5.43;;
64875;SDS011;51369;49.862;9.908;2023-06-14T02:25:19;8.55;;;5.28;;
64875;SDS011;51369;49.862;9.908;2023-06-14T02:27:44;11.85;;;5.55;;
64875;SDS011;51369;49.862;9.908;2023-06-14T02:30:10;9.25;;;6.53;;
64875;SDS011;51369;49.862;9.908;2023-06-14T02:32:36;6.18;;;5.03;;
64875;SDS011;51369;49.862;9.908;2023-06-14T02:35:02;9.00;;;5.35;;
64875;SDS011;51369;49.862;9.908;2023-06-14T02:37:27;9.13;;;5.50;;
64875;SDS011;51369;49.862;9.908;2023-06-14T02:39:53;15.75;;;5.80;;
64875;SDS011;51369;49.862;9.908;2023-06-14T02:42:18;7.68;;;5.13;;
64875;SDS011;51369;49.862;9.908;2023-06-14T02:44:43;7.75;;;5.95;;
64875;SDS011;51369;49.862;9.908;2023-06-14T02:47:10;7.15;;;5.57;;
64875;SDS011;51369;49.862;9.908;2023-06-14T02:49:35;9.02;;;5.30;;
64875;SDS011;51369;49.862;9.908;2023-06-14T02:52:01;8.80;;;5.43;;
64875;SDS011;51369;49.862;9.908;2023-06-14T02:54:28;8.40;;;5.65;;
64875;SDS011;51369;49.862;9.908;2023-06-14T02:56:53;9.10;;;5.85;;
64875;SDS011;51369;49.862;9.908;2023-06-14T02:59:19;11.55;;;5.75;;
64875;SDS011;51369;49.862;9.908;2023-06-14T03:01:46;10.32;;;5.32;;
64875;SDS011;51369;49.862;9.908;2023-06-14T03:04:13;8.77;;;5.80;;
64875;SDS011;51369;49.862;9.908;2023-06-14T03:06:40;8.02;;;5.32;;
64875;SDS011;51369;49.862;9.908;2023-06-14T03:09:09;8.52;;;6.38;;
64875;SDS011;51369;49.862;9.908;2023-06-14T03:11:37;8.20;;;6.20;;
64875;SDS011;51369;49.862;9.908;2023-06-14T03:14:03;9.05;;;5.90;;
64875;SDS011;51369;49.862;9.908;2023-06-14T03:16:29;8.55;;;5.57;;
64875;SDS011;51369;49.862;9.908;2023-06-14T03:18:55;7.55;;;5.75;;
64875;SDS011;51369;49.862;9.908;2023-06-14T03:21:23;7.68;;;6.00;;
64875;SDS011;51369;49.862;9.908;2023-06-14T03:23:50;11.40;;;6.40;;
64875;SDS011;51369;49.862;9.908;2023-06-14T03:26:15;9.63;;;6.13;;
64875;SDS011;51369;49.862;9.908;2023-06-14T03:28:44;7.53;;;5.65;;
64875;SDS011;51369;49.862;9.908;2023-06-14T03:31:11;8.48;;;5.32;;
64875;SDS011;51369;49.862;9.908;2023-06-14T03:33:37;7.82;;;5.45;;
64875;SDS011;51369;49.862;9.908;2023-06-14T03:36:03;10.35;;;5.65;;
64875;SDS011;51369;49.862;9.908;2023-06-14T03:38:28;6.85;;;5.75;;
64875;SDS011;51369;49.862;9.908;2023-06-14T03:40:54;11.55;;;6.13;;
64875;SDS011;51369;49.862;9.908;2023-06-14T03:43:19;9.73;;;6.25;;
64875;SDS011;51369;49.862;9.908;2023-06-14T03:45:45;13.30;;;6.60;;
64875;SDS011;51369;49.862;9.908;2023-06-14T03:48:11;12.93;;;5.80;;
64875;SDS011;51369;49.862;9.908;2023-06-14T03:50:37;8.75;;;5.53;;
64875;SDS011;51369;49.862;9.908;2023-06-14T03:53:04;7.82;;;5.50;;
64875;SDS011;51369;49.862;9.908;2023-06-14T03:55:31;8.73;;;5.60;;
64875;SDS011;51369;49.862;9.908;2023-06-14T03:57:58;9.63;;;5.82;;
64875;SDS011;51369;49.862;9.908;2023-06-14T04:00:23;8.57;;;5.63;;
64875;SDS011;51369;49.862;9.908;2023-06-14T04:02:49;8.73;;;5.45;;
64875;SDS011;51369;49.862;9.908;2023-06-14T04:05:14;10.43;;;5.78;;
64875;SDS011;51369;49.862;9.908;2023-06-14T04:07:47;14.43;;;6.03;;
64875;SDS011;51369;49.862;9.908;2023-06-14T04:10:13;9.25;;;5.80;;
64875;SDS011;51369;49.862;9.908;2023-06-14T04:12:40;10.32;;;5.90;;
64875;SDS011;51369;49.862;9.908;2023-06-14T04:15:06;9.75;;;5.72;;
64875;SDS011;51369;49.862;9.908;2023-06-14T04:17:33;7.97;;;5.63;;
64875;SDS011;51369;49.862;9.908;2023-06-14T04:20:01;12.40;;;5.35;;
64875;SDS011;51369;49.862;9.908;2023-06-14T04:22:30;9.15;;;5.60;;
64875;SDS011;51369;49.862;9.908;2023-06-14T04:24:57;7.50;;;5.40;;
64875;SDS011;51369;49.862;9.908;2023-06-14T04:27:25;11.68;;;6.35;;
64875;SDS011;51369;49.862;9.908;2023-06-14T04:29:52;8.85;;;5.68;;
64875;SDS011;51369;49.862;9.908;2023-06-14T04:32:32;10.77;;;6.03;;
64875;SDS011;51369;49.862;9.908;2023-06-14T04:35:07;8.40;;;5.68;;
64875;SDS011;51369;49.862;9.908;2023-06-14T04:37:34;8.48;;;5.63;;
64875;SDS011;51369;49.862;9.908;2023-06-14T04:40:00;11.32;;;5.70;;
64875;SDS011;51369;49.862;9.908;2023-06-14T04:42:26;8.15;;;5.88;;
64875;SDS011;51369;49.862;9.908;2023-06-14T04:44:57;9.52;;;5.53;;
64875;SDS011;51369;49.862;9.908;2023-06-14T04:47:24;9.75;;;6.07;;
64875;SDS011;51369;49.862;9.908;2023-06-14T04:49:50;9.43;;;5.75;;
64875;SDS011;51369;49.862;9.908;2023-06-14T04:52:19;12.30;;;5.85;;
64875;SDS011;51369;49.862;9.908;2023-06-14T04:54:46;12.57;;;5.75;;
64875;SDS011;51369;49.862;9.908;2023-06-14T04:57:16;8.30;;;5.68;;
64875;SDS011;51369;49.862;9.908;2023-06-14T04:59:43;12.45;;;6.22;;
64875;SDS011;51369;49.862;9.908;2023-06-14T05:02:10;8.07;;;5.70;;
64875;SDS011;51369;49.862;9.908;2023-06-14T05:04:36;9.23;;;5.38;;
64875;SDS011;51369;49.862;9.908;2023-06-14T05:07:08;8.48;;;5.47;;
64875;SDS011;51369;49.862;9.908;2023-06-14T05:09:37;9.90;;;6.03;;
64875;SDS011;51369;49.862;9.908;2023-06-14T05:12:03;9.18;;;5.78;;
64875;SDS011;51369;49.862;9.908;2023-06-14T05:14:29;9.55;;;5.53;;
64875;SDS011;51369;49.862;9.908;2023-06-14T05:16:56;9.90;;;5.35;;
64875;SDS011;51369;49.862;9.908;2023-06-14T05:19:22;8.88;;;5.45;;
64875;SDS011;51369;49.862;9.908;2023-06-14T05:21:47;8.68;;;5.60;;
64875;SDS011;51369;49.862;9.908;2023-06-14T05:24:13;8.80;;;5.35;;
64875;SDS011;51369;49.862;9.908;2023-06-14T05:26:39;7.47;;;5.07;;
64875;SDS011;51369;49.862;9.908;2023-06-14T05:29:04;9.90;;;5.28;;
64875;SDS011;51369;49.862;9.908;2023-06-14T05:31:30;9.90;;;5.75;;
64875;SDS011;51369;49.862;9.908;2023-06-14T05:33:55;9.85;;;5.40;;
64875;SDS011;51369;49.862;9.908;2023-06-14T05:36:21;8.52;;;5.57;;
64875;SDS011;51369;49.862;9.908;2023-06-14T05:38:47;8.13;;;5.53;;
64875;SDS011;51369;49.862;9.908;2023-06-14T05:41:12;8.68;;;5.35;;
64875;SDS011;51369;49.862;9.908;2023-06-14T05:43:38;10.32;;;5.60;;
64875;SDS011;51369;49.862;9.908;2023-06-14T05:46:03;11.63;;;5.68;;
64875;SDS011;51369;49.862;9.908;2023-06-14T05:48:29;8.25;;;5.10;;
64875;SDS011;51369;49.862;9.908;2023-06-14T05:50:55;6.65;;;4.80;;
64875;SDS011;51369;49.862;9.908;2023-06-14T05:53:21;5.78;;;4.63;;
64875;SDS011;51369;49.862;9.908;2023-06-14T05:55:46;7.28;;;5.47;;
64875;SDS011;51369;49.862;9.908;2023-06-14T05:58:12;7.93;;;5.10;;
64875;SDS011;51369;49.862;9.908;2023-06-14T06:00:38;10.30;;;4.85;;
64875;SDS011;51369;49.862;9.908;2023-06-14T06:03:04;9.95;;;5.38;;
64875;SDS011;51369;49.862;9.908;2023-06-14T06:05:30;6.47;;;5.25;;
64875;SDS011;51369;49.862;9.908;2023-06-14T06:07:55;8.40;;;5.13;;
64875;SDS011;51369;49.862;9.908;2023-06-14T06:10:21;9.88;;;5.55;;
64875;SDS011;51369;49.862;9.908;2023-06-14T06:12:46;10.93;;;5.75;;
64875;SDS011;51369;49.862;9.908;2023-06-14T06:15:13;9.65;;;5.88;;
64875;SDS011;51369;49.862;9.908;2023-06-14T06:17:39;11.38;;;5.05;;
64875;SDS011;51369;49.862;9.908;2023-06-14T06:20:05;6.85;;;5.80;;
64875;SDS011;51369;49.862;9.908;2023-06-14T06:22:33;11.88;;;5.25;;
64875;SDS011;51369;49.862;9.908;2023-06-14T06:24:59;10.52;;;5.30;;
64875;SDS011;51369;49.862;9.908;2023-06-14T06:27:25;9.95;;;5.72;;
64875;SDS011;51369;49.862;9.908;2023-06-14T06:29:51;6.70;;;5.30;;
64875;SDS011;51369;49.862;9.908;2023-06-14T06:32:17;10.15;;;6.15;;
64875;SDS011;51369;49.862;9.908;2023-06-14T06:34:42;10.20;;;5.68;;
64875;SDS011;51369;49.862;9.908;2023-06-14T06:37:08;8.45;;;5.63;;
64875;SDS011;51369;49.862;9.908;2023-06-14T06:39:33;8.48;;;4.85;;
64875;SDS011;51369;49.862;9.908;2023-06-14T06:41:58;6.07;;;5.43;;
64875;SDS011;51369;49.862;9.908;2023-06-14T06:44:32;7.82;;;5.45;;
64875;SDS011;51369;49.862;9.908;2023-06-14T06:46:57;10.88;;;5.40;;
64875;SDS011;51369;49.862;9.908;2023-06-14T06:49:23;10.57;;;5.63;;
64875;SDS011;51369;49.862;9.908;2023-06-14T06:52:04;9.68;;;5.20;;
64875;SDS011;51369;49.862;9.908;2023-06-14T06:56:56;11.00;;;5.10;;
64875;SDS011;51369;49.862;9.908;2023-06-14T06:59:21;9.60;;;4.85;;
64875;SDS011;51369;49.862;9.908;2023-06-14T07:01:47;6.60;;;5.03;;
64875;SDS011;51369;49.862;9.908;2023-06-14T07:04:13;7.70;;;4.97;;
64875;SDS011;51369;49.862;9.908;2023-06-14T07:06:38;8.82;;;4.88;;
64875;SDS011;51369;49.862;9.908;2023-06-14T07:09:03;10.32;;;5.18;;
64875;SDS011;51369;49.862;9.908;2023-06-14T07:11:31;6.07;;;4.60;;
64875;SDS011;51369;49.862;9.908;2023-06-14T07:13:57;9.02;;;4.97;;
64875;SDS011;51369;49.862;9.908;2023-06-14T07:16:22;7.25;;;5.03;;
64875;SDS011;51369;49.862;9.908;2023-06-14T07:18:48;7.22;;;4.50;;
64875;SDS011;51369;49.862;9.908;2023-06-14T07:21:13;6.90;;;4.93;;
64875;SDS011;51369;49.862;9.908;2023-06-14T07:23:39;6.05;;;4.63;;
64875;SDS011;51369;49.862;9.908;2023-06-14T07:26:05;5.03;;;4.53;;
64875;SDS011;51369;49.862;9.908;2023-06-14T07:28:30;6.28;;;4.47;;
64875;SDS011;51369;49.862;9.908;2023-06-14T07:30:55;8.63;;;5.28;;
64875;SDS011;51369;49.862;9.908;2023-06-14T07:33:21;10.63;;;4.05;;
64875;SDS011;51369;49.862;9.908;2023-06-14T07:35:46;9.95;;;5.35;;
64875;SDS011;51369;49.862;9.908;2023-06-14T07:38:12;5.07;;;4.57;;
64875;SDS011;51369;49.862;9.908;2023-06-14T07:40:38;6.35;;;3.70;;
64875;SDS011;51369;49.862;9.908;2023-06-14T07:43:03;6.50;;;4.32;;
64875;SDS011;51369;49.862;9.908;2023-06-14T07:45:29;4.88;;;3.80;;
64875;SDS011;51369;49.862;9.908;2023-06-14T07:47:54;5.30;;;3.85;;
64875;SDS011;51369;49.862;9.908;2023-06-14T07:50:20;7.15;;;4.97;;
64875;SDS011;51369;49.862;9.908;2023-06-14T07:52:45;9.57;;;4.45;;
64875;SDS011;51369;49.862;9.908;2023-06-14T07:55:12;6.53;;;4.63;;
64875;SDS011;51369;49.862;9.908;2023-06-14T07:57:37;6.00;;;4.70;;
64875;SDS011;51369;49.862;9.908;2023-06-14T08:00:03;9.38;;;4.60;;
64875;SDS011;51369;49.862;9.908;2023-06-14T08:02:37;8.10;;;4.72;;
64875;SDS011;51369;49.862;9.908;2023-06-14T08:05:02;9.43;;;4.32;;
64875;SDS011;51369;49.862;9.908;2023-06-14T08:07:28;7.82;;;4.78;;
64875;SDS011;51369;49.862;9.908;2023-06-14T08:09:53;6.50;;;5.05;;
64875;SDS011;51369;49.862;9.908;2023-06-14T08:12:18;11.65;;;4.63;;
64875;SDS011;51369;49.862;9.908;2023-06-14T08:14:44;4.90;;;4.40;;
64875;SDS011;51369;49.862;9.908;2023-06-14T08:17:09;6.65;;;4.50;;
64875;SDS011;51369;49.862;9.908;2023-06-14T08:19:35;6.15;;;4.18;;
64875;SDS011;51369;49.862;9.908;2023-06-14T08:22:00;6.93;;;4.38;;
64875;SDS011;51369;49.862;9.908;2023-06-14T08:24:26;4.75;;;4.22;;
64875;SDS011;51369;49.862;9.908;2023-06-14T08:26:54;6.85;;;4.00;;
64875;SDS011;51369;49.862;9.908;2023-06-14T08:29:19;6.80;;;4.40;;
64875;SDS011;51369;49.862;9.908;2023-06-14T08:31:45;8.65;;;4.93;;
64875;SDS011;51369;49.862;9.908;2023-06-14T08:34:11;12.00;;;4.45;;
64875;SDS011;51369;49.862;9.908;2023-06-14T08:36:37;8.13;;;4.68;;
64875;SDS011;51369;49.862;9.908;2023-06-14T08:39:02;10.30;;;4.32;;
64875;SDS011;51369;49.862;9.908;2023-06-14T08:41:27;4.97;;;4.35;;
64875;SDS011;51369;49.862;9.908;2023-06-14T08:43:54;21.13;;;6.15;;
64875;SDS011;51369;49.862;9.908;2023-06-14T08:46:20;8.48;;;4.90;;
64875;SDS011;51369;49.862;9.908;2023-06-14T08:48:51;7.40;;;4.57;;
64875;SDS011;51369;49.862;9.908;2023-06-14T08:51:18;9.00;;;4.95;;
64875;SDS011;51369;49.862;9.908;2023-06-14T08:53:44;8.85;;;5.35;;
64875;SDS011;51369;49.862;9.908;2023-06-14T08:56:10;6.38;;;4.85;;
64875;SDS011;51369;49.862;9.908;2023-06-14T08:58:39;9.25;;;5.00;;
64875;SDS011;51369;49.862;9.908;2023-06-14T09:01:10;9.57;;;4.43;;
64875;SDS011;51369;49.862;9.908;2023-06-14T09:03:41;5.25;;;4.38;;
64875;SDS011;51369;49.862;9.908;2023-06-14T09:06:08;5.95;;;4.60;;
64875;SDS011;51369;49.862;9.908;2023-06-14T09:08:39;8.55;;;4.88;;
64875;SDS011;51369;49.862;9.908;2023-06-14T09:11:08;5.43;;;4.70;;
64875;SDS011;51369;49.862;9.908;2023-06-14T09:13:33;12.07;;;4.90;;
64875;SDS011;51369;49.862;9.908;2023-06-14T09:15:59;7.38;;;4.68;;
64875;SDS011;51369;49.862;9.908;2023-06-14T09:18:37;7.28;;;4.55;;
64875;SDS011;51369;49.862;9.908;2023-06-14T09:21:05;4.82;;;4.22;;
64875;SDS011;51369;49.862;9.908;2023-06-14T09:23:36;7.80;;;4.55;;
64875;SDS011;51369;49.862;9.908;2023-06-14T09:26:15;8.23;;;4.78;;
64875;SDS011;51369;49.862;9.908;2023-06-14T09:28:45;6.95;;;4.43;;
64875;SDS011;51369;49.862;9.908;2023-06-14T09:31:16;7.25;;;4.68;;
64875;SDS011;51369;49.862;9.908;2023-06-14T09:33:46;7.07;;;4.45;;
64875;SDS011;51369;49.862;9.908;2023-06-14T09:36:18;10.02;;;4.65;;
64875;SDS011;51369;49.862;9.908;2023-06-14T09:38:51;6.30;;;4.50;;
64875;SDS011;51369;49.862;9.908;2023-06-14T09:41:17;13.70;;;4.45;;
64875;SDS011;51369;49.862;9.908;2023-06-14T09:43:43;8.10;;;4.72;;
64875;SDS011;51369;49.862;9.908;2023-06-14T09:46:10;9.18;;;4.30;;
64875;SDS011;51369;49.862;9.908;2023-06-14T09:48:36;4.47;;;4.07;;
64875;SDS011;51369;49.862;9.908;2023-06-14T09:51:01;8.98;;;4.50;;
64875;SDS011;51369;49.862;9.908;2023-06-14T09:53:27;11.48;;;4.57;;
64875;SDS011;51369;49.862;9.908;2023-06-14T09:55:55;6.05;;;4.32;;
64875;SDS011;51369;49.862;9.908;2023-06-14T09:58:23;7.88;;;4.57;;
64875;SDS011;51369;49.862;9.908;2023-06-14T10:00:53;6.78;;;4.50;;
64875;SDS011;51369;49.862;9.908;2023-06-14T10:03:27;9.73;;;5.57;;
64875;SDS011;51369;49.862;9.908;2023-06-14T10:05:54;9.77;;;4.50;;
64875;SDS011;51369;49.862;9.908;2023-06-14T10:08:23;9.48;;;3.80;;
64875;SDS011;51369;49.862;9.908;2023-06-14T10:10:51;7.20;;;3.78;;
64875;SDS011;51369;49.862;9.908;2023-06-14T10:13:16;7.43;;;4.30;;
64875;SDS011;51369;49.862;9.908;2023-06-14T10:15:54;4.30;;;3.90;;
64875;SDS011;51369;49.862;9.908;2023-06-14T10:18:24;4.63;;;3.83;;
64875;SDS011;51369;49.862;9.908;2023-06-14T10:21:02;8.65;;;4.05;;
64875;SDS011;51369;49.862;9.908;2023-06-14T10:23:35;7.07;;;3.95;;
64875;SDS011;51369;49.862;9.908;2023-06-14T10:26:04;6.05;;;4.68;;
64875;SDS011;51369;49.862;9.908;2023-06-14T10:28:30;5.65;;;4.13;;
64875;SDS011;51369;49.862;9.908;2023-06-14T10:31:07;6.00;;;3.83;;
64875;SDS011;51369;49.862;9.908;2023-06-14T10:33:50;7.57;;;4.05;;
64875;SDS011;51369;49.862;9.908;2023-06-14T10:38:59;5.32;;;3.72;;
64875;SDS011;51369;49.862;9.908;2023-06-14T10:41:33;7.88;;;4.00;;
64875;SDS011;51369;49.862;9.908;2023-06-14T10:46:54;8.65;;;3.95;;
64875;SDS011;51369;49.862;9.908;2023-06-14T10:49:20;5.95;;;3.53;;
64875;SDS011;51369;49.862;9.908;2023-06-14T10:52:07;4.78;;;3.50;;
64875;SDS011;51369;49.862;9.908;2023-06-14T10:54:37;4.07;;;3.67;;
64875;SDS011;51369;49.862;9.908;2023-06-14T10:57:02;4.13;;;3.70;;
64875;SDS011;51369;49.862;9.908;2023-06-14T10:59:32;3.85;;;3.35;;
64875;SDS011;51369;49.862;9.908;2023-06-14T11:04:31;3.65;;;3.13;;
64875;SDS011;51369;49.862;9.908;2023-06-14T11:07:19;5.20;;;3.90;;
64875;SDS011;51369;49.862;9.908;2023-06-14T11:13:05;4.07;;;3.47;;
64875;SDS011;51369;49.862;9.908;2023-06-14T11:15:32;5.55;;;3.30;;
64875;SDS011;51369;49.862;9.908;2023-06-14T11:18:02;5.82;;;3.20;;
64875;SDS011;51369;49.862;9.908;2023-06-14T11:20:30;5.85;;;3.40;;
64875;SDS011;51369;49.862;9.908;2023-06-14T11:22:56;5.75;;;4.13;;
64875;SDS011;51369;49.862;9.908;2023-06-14T11:25:22;4.35;;;3.90;;
64875;SDS011;51369;49.862;9.908;2023-06-14T11:27:51;5.25;;;3.55;;
64875;SDS011;51369;49.862;9.908;2023-06-14T11:30:17;5.13;;;3.22;;
64875;SDS011;51369;49.862;9.908;2023-06-14T11:32:45;6.07;;;3.40;;
64875;SDS011;51369;49.862;9.908;2023-06-14T11:35:11;6.30;;;3.90;;
64875;SDS011;51369;49.862;9.908;2023-06-14T11:37:36;4.72;;;3.53;;
64875;SDS011;51369;49.862;9.908;2023-06-14T11:40:03;7.97;;;3.17;;
64875;SDS011;51369;49.862;9.908;2023-06-14T11:42:33;6.18;;;3.70;;
64875;SDS011;51369;49.862;9.908;2023-06-14T11:44:59;4.03;;;3.47;;
64875;SDS011;51369;49.862;9.908;2023-06-14T11:47:35;6.68;;;3.55;;
64875;SDS011;51369;49.862;9.908;2023-06-14T11:50:01;4.40;;;3.15;;
64875;SDS011;51369;49.862;9.908;2023-06-14T11:52:27;5.03;;;3.00;;
64875;SDS011;51369;49.862;9.908;2023-06-14T11:54:53;5.10;;;3.40;;
64875;SDS011;51369;49.862;9.908;2023-06-14T11:57:19;4.10;;;3.38;;
64875;SDS011;51369;49.862;9.908;2023-06-14T11:59:45;4.00;;;3.60;;
64875;SDS011;51369;49.862;9.908;2023-06-14T12:02:14;3.38;;;3.08;;
64875;SDS011;51369;49.862;9.908;2023-06-14T12:04:41;3.08;;;2.75;;
64875;SDS011;51369;49.862;9.908;2023-06-14T12:07:14;6.07;;;3.20;;
64875;SDS011;51369;49.862;9.908;2023-06-14T12:09:42;8.68;;;3.55;;
64875;SDS011;51369;49.862;9.908;2023-06-14T12:12:27;7.20;;;3.83;;
64875;SDS011;51369;49.862;9.908;2023-06-14T12:14:55;3.55;;;3.22;;
64875;SDS011;51369;49.862;9.908;2023-06-14T12:17:21;5.40;;;3.00;;
64875;SDS011;51369;49.862;9.908;2023-06-14T12:19:48;4.20;;;3.25;;
64875;SDS011;51369;49.862;9.908;2023-06-14T12:22:15;4.68;;;3.30;;
64875;SDS011;51369;49.862;9.908;2023-06-14T12:24:42;3.33;;;2.88;;
64875;SDS011;51369;49.862;9.908;2023-06-14T12:27:08;4.63;;;3.35;;
64875;SDS011;51369;49.862;9.908;2023-06-14T12:29:35;3.67;;;3.30;;
64875;SDS011;51369;49.862;9.908;2023-06-14T12:32:01;7.35;;;3.42;;
64875;SDS011;51369;49.862;9.908;2023-06-14T12:34:26;6.88;;;2.90;;
64875;SDS011;51369;49.862;9.908;2023-06-14T12:36:53;10.50;;;3.50;;
64875;SDS011;51369;49.862;9.908;2023-06-14T12:39:19;7.85;;;3.30;;
64875;SDS011;51369;49.862;9.908;2023-06-14T12:41:45;4.28;;;3.42;;
64875;SDS011;51369;49.862;9.908;2023-06-14T12:44:11;4.43;;;3.47;;
64875;SDS011;51369;49.862;9.908;2023-06-14T12:46:36;13.52;;;4.28;;
64875;SDS011;51369;49.862;9.908;2023-06-14T12:49:04;3.88;;;3.58;;
64875;SDS011;51369;49.862;9.908;2023-06-14T12:51:30;3.83;;;3.33;;
64875;SDS011;51369;49.862;9.908;2023-06-14T12:53:55;4.32;;;2.95;;
64875;SDS011;51369;49.862;9.908;2023-06-14T12:56:21;3.20;;;2.90;;
64875;SDS011;51369;49.862;9.908;2023-06-14T12:58:46;4.03;;;3.25;;
64875;SDS011;51369;49.862;9.908;2023-06-14T13:01:12;3.65;;;3.05;;
64875;SDS011;51369;49.862;9.908;2023-06-14T13:03:37;3.78;;;2.65;;
64875;SDS011;51369;49.862;9.908;2023-06-14T13:06:02;4.88;;;3.28;;
64875;SDS011;51369;49.862;9.908;2023-06-14T13:08:29;8.52;;;3.20;;
64875;SDS011;51369;49.862;9.908;2023-06-14T13:10:55;5.80;;;4.10;;
64875;SDS011;51369;49.862;9.908;2023-06-14T13:13:20;3.33;;;2.80;;
64875;SDS011;51369;49.862;9.908;2023-06-14T13:15:46;3.55;;;3.22;;
64875;SDS011;51369;49.862;9.908;2023-06-14T13:18:12;3.92;;;2.90;;
64875;SDS011;51369;49.862;9.908;2023-06-14T13:20:40;6.63;;;3.20;;
64875;SDS011;51369;49.862;9.908;2023-06-14T13:23:07;7.03;;;3.63;;
64875;SDS011;51369;49.862;9.908;2023-06-14T13:25:36;8.75;;;3.05;;
64875;SDS011;51369;49.862;9.908;2023-06-14T13:28:03;3.80;;;3.15;;
64875;SDS011;51369;49.862;9.908;2023-06-14T13:30:29;4.82;;;3.22;;
64875;SDS011;51369;49.862;9.908;2023-06-14T13:32:54;7.25;;;3.15;;
64875;SDS011;51369;49.862;9.908;2023-06-14T13:35:21;3.65;;;3.35;;
64875;SDS011;51369;49.862;9.908;2023-06-14T13:37:48;6.28;;;3.30;;
64875;SDS011;51369;49.862;9.908;2023-06-14T13:40:13;11.20;;;3.80;;
64875;SDS011;51369;49.862;9.908;2023-06-14T13:42:38;7.03;;;3.30;;
64875;SDS011;51369;49.862;9.908;2023-06-14T13:45:05;3.63;;;3.30;;
64875;SDS011;51369;49.862;9.908;2023-06-14T13:47:31;7.93;;;2.95;;
64875;SDS011;51369;49.862;9.908;2023-06-14T13:49:56;7.22;;;3.17;;
64875;SDS011;51369;49.862;9.908;2023-06-14T13:52:22;4.93;;;3.08;;
64875;SDS011;51369;49.862;9.908;2023-06-14T13:54:47;7.47;;;3.25;;
64875;SDS011;51369;49.862;9.908;2023-06-14T13:57:13;3.72;;;3.03;;
64875;SDS011;51369;49.862;9.908;2023-06-14T13:59:39;3.72;;;2.92;;
64875;SDS011;51369;49.862;9.908;2023-06-14T14:02:05;6.28;;;3.20;;
64875;SDS011;51369;49.862;9.908;2023-06-14T14:04:31;3.25;;;2.95;;
64875;SDS011;51369;49.862;9.908;2023-06-14T14:06:56;3.47;;;3.13;;
64875;SDS011;51369;49.862;9.908;2023-06-14T14:09:21;4.07;;;3.50;;
64875;SDS011;51369;49.862;9.908;2023-06-14T14:11:47;4.25;;;3.20;;
64875;SDS011;51369;49.862;9.908;2023-06-14T14:14:13;7.10;;;3.20;;
64875;SDS011;51369;49.862;9.908;2023-06-14T14:16:38;3.40;;;3.10;;
64875;SDS011;51369;49.862;9.908;2023-06-14T14:19:04;5.43;;;3.17;;
64875;SDS011;51369;49.862;9.908;2023-06-14T14:21:29;8.15;;;3.60;;
64875;SDS011;51369;49.862;9.908;2023-06-14T14:23:54;39.60;;;7.45;;
64875;SDS011;51369;49.862;9.908;2023-06-14T14:26:20;3.80;;;2.67;;
64875;SDS011;51369;49.862;9.908;2023-06-14T14:28:45;5.53;;;3.22;;
64875;SDS011;51369;49.862;9.908;2023-06-14T14:31:11;4.43;;;3.08;;
64875;SDS011;51369;49.862;9.908;2023-06-14T14:33:37;7.45;;;3.17;;
64875;SDS011;51369;49.862;9.908;2023-06-14T14:36:03;4.70;;;2.67;;
64875;SDS011;51369;49.862;9.908;2023-06-14T14:38:30;4.22;;;2.50;;
64875;SDS011;51369;49.862;9.908;2023-06-14T14:40:55;4.88;;;3.20;;
64875;SDS011;51369;49.862;9.908;2023-06-14T14:43:21;3.10;;;2.65;;
64875;SDS011;51369;49.862;9.908;2023-06-14T14:45:46;3.00;;;2.67;;
64875;SDS011;51369;49.862;9.908;2023-06-14T14:48:12;3.67;;;3.13;;
64875;SDS011;51369;49.862;9.908;2023-06-14T14:50:37;4.82;;;2.80;;
64875;SDS011;51369;49.862;9.908;2023-06-14T14:53:03;2.90;;;2.67;;
64875;SDS011;51369;49.862;9.908;2023-06-14T14:55:28;5.47;;;2.95;;
64875;SDS011;51369;49.862;9.908;2023-06-14T14:57:53;4.82;;;3.60;;